Time;durP1;ratioP1;P1;durP2;ratioP2;P2;SDS_P1;SDS_P2;PMS_P1;PMS_P2;Temp;Humidity;BMP_temperature;BMP_pressure;BME280_temperature;BME280_humidity;BME280_pressure;Samples;Min_cycle;Max_cycle;Signal;HPM_P1;HPM_P2
2023/08/19 00:00:38;;;;;;;;;;;18.20;79.20;;;;;;5094270;28;19924;-83
2023/08/19 00:03:04;;;;;;;;;;;18.20;79.30;;;;;;5073266;28;20381;-85
2023/08/19 00:05:30;;;;;;;;;;;18.20;79.20;;;;;;5076759;28;19971;-86
2023/08/19 00:07:55;;;;;;;;;;;18.20;79.20;;;;;;5090764;28;19932;-86
2023/08/19 00:10:21;;;;;;;;;;;18.10;79.10;;;;;;5089223;28;19926;-86
2023/08/19 00:12:46;;;;;;;;;;;18.10;79.10;;;;;;5071092;28;19920;-85
2023/08/19 00:15:12;;;;;;;;;;;18.00;79.10;;;;;;5107317;28;19903;-84
2023/08/19 00:17:37;;;;;;;;;;;18.00;79.00;;;;;;5090148;28;19983;-86
2023/08/19 00:20:06;;;;;;;;;;;17.90;79.20;;;;;;5072638;28;19932;-87
2023/08/19 00:22:31;;;;;;;;;;;17.80;79.20;;;;;;5088628;28;19917;-85
2023/08/19 00:24:57;;;;;;;;;;;17.70;79.30;;;;;;5088993;28;19919;-85
2023/08/19 00:27:22;;;;;;;;;;;17.70;79.40;;;;;;5108474;28;19912;-86
2023/08/19 00:29:48;;;;;;;;;;;17.60;79.30;;;;;;5092727;28;19931;-85
2023/08/19 00:32:15;;;;;;;;;;;17.60;79.40;;;;;;5075704;28;19916;-87
2023/08/19 00:34:40;;;;;;;;;;;17.60;79.40;;;;;;5109043;28;19948;-85
2023/08/19 00:37:07;;;;;;;;;;;17.60;79.40;;;;;;5106446;28;19916;-85
2023/08/19 00:39:33;;;;;;;;;;;17.60;79.40;;;;;;5089753;28;19916;-86
2023/08/19 00:41:58;;;;;;;;;;;17.60;79.40;;;;;;5089835;28;19892;-85
2023/08/19 00:44:24;;;;;;;;;;;17.50;79.30;;;;;;5070336;28;19902;-85
2023/08/19 00:46:50;;;;;;;;;;;17.50;79.40;;;;;;5101424;28;20333;-86
2023/08/19 00:49:15;;;;;;;;;;;17.40;79.40;;;;;;5064338;28;19918;-85
2023/08/19 00:51:41;;;;;;;;;;;17.40;79.40;;;;;;5081604;28;19936;-86
2023/08/19 00:54:07;;;;;;;;;;;17.40;79.40;;;;;;5084482;28;19919;-85
2023/08/19 00:56:32;;;;;;;;;;;17.40;79.40;;;;;;5069585;28;19896;-86
2023/08/19 00:58:58;;;;;;;;;;;17.40;79.30;;;;;;5099515;28;19922;-86
2023/08/19 01:01:24;;;;;;;;;;;17.30;79.40;;;;;;5072277;28;19912;-86
2023/08/19 01:03:50;;;;;;;;;;;17.30;79.50;;;;;;5087905;28;19913;-86
2023/08/19 01:06:24;;;;;;;;;;;17.30;79.50;;;;;;5088106;28;19934;-85
2023/08/19 01:08:55;;;;;;;;;;;17.30;79.60;;;;;;5087997;28;19948;-85
2023/08/19 01:11:40;;;;;;;;;;;17.30;79.60;;;;;;5089384;28;19915;-85
2023/08/19 01:14:14;;;;;;;;;;;17.30;79.60;;;;;;5109582;28;19958;-83
2023/08/19 01:16:42;;;;;;;;;;;17.40;79.60;;;;;;5091635;28;19943;-84
2023/08/19 01:19:10;;;;;;;;;;;17.40;79.50;;;;;;5091441;28;19916;-86
2023/08/19 01:21:36;;;;;;;;;;;17.40;79.50;;;;;;5108547;28;19930;-86
2023/08/19 01:24:04;;;;;;;;;;;17.50;79.50;;;;;;5090286;28;19912;-86
2023/08/19 01:26:30;;;;;;;;;;;17.50;79.40;;;;;;5089950;28;19908;-84
2023/08/19 01:28:56;;;;;;;;;;;17.50;79.40;;;;;;5107351;28;20380;-83
2023/08/19 01:31:21;;;;;;;;;;;17.60;79.40;;;;;;5104357;28;19972;-86
2023/08/19 01:33:47;;;;;;;;;;;17.70;79.40;;;;;;5084082;28;19950;-83
2023/08/19 01:36:39;;;;;;;;;;;17.80;79.40;;;;;;5085924;28;19919;-83
2023/08/19 01:39:08;;;;;;;;;;;17.90;79.40;;;;;;5082860;28;19925;-84
2023/08/19 01:41:34;;;;;;;;;;;18.00;79.30;;;;;;5105372;28;19944;-83
2023/08/19 01:44:01;;;;;;;;;;;18.00;79.30;;;;;;5089826;28;19912;-84
2023/08/19 01:46:27;;;;;;;;;;;18.10;79.30;;;;;;5070102;28;19975;-86
2023/08/19 01:48:52;;;;;;;;;;;18.10;79.40;;;;;;5104664;28;19908;-85
2023/08/19 01:51:18;;;;;;;;;;;18.20;79.50;;;;;;5103840;28;20310;-86
2023/08/19 01:53:44;;;;;;;;;;;18.30;79.40;;;;;;5099019;28;19908;-83
2023/08/19 01:56:11;;;;;;;;;;;18.30;79.40;;;;;;5102292;28;19908;-83
2023/08/19 01:58:37;;;;;;;;;;;18.40;79.30;;;;;;5089861;28;19908;-86
2023/08/19 02:01:02;;;;;;;;;;;18.30;79.10;;;;;;5086770;28;19987;-83
2023/08/19 02:03:28;;;;;;;;;;;18.30;79.20;;;;;;5070122;28;19916;-87
2023/08/19 02:05:53;;;;;;;;;;;18.30;79.50;;;;;;5074149;28;19975;-84
2023/08/19 02:08:19;;;;;;;;;;;18.30;79.60;;;;;;5099552;28;19912;-83
2023/08/19 02:10:45;;;;;;;;;;;18.40;79.70;;;;;;5102493;28;19979;-84
2023/08/19 02:13:10;;;;;;;;;;;18.50;79.70;;;;;;5069831;28;19990;-83
2023/08/19 02:15:36;;;;;;;;;;;18.60;79.70;;;;;;5070198;28;19983;-82
2023/08/19 02:18:01;;;;;;;;;;;18.70;79.60;;;;;;5107864;28;19971;-83
2023/08/19 02:20:28;;;;;;;;;;;18.80;79.60;;;;;;5100901;28;19958;-83
2023/08/19 02:22:58;;;;;;;;;;;18.90;79.60;;;;;;5102925;28;19937;-85
2023/08/19 02:25:24;;;;;;;;;;;18.90;79.60;;;;;;5086346;28;19908;-82
2023/08/19 02:27:50;;;;;;;;;;;18.90;79.50;;;;;;5085436;28;19920;-83
2023/08/19 02:30:15;;;;;;;;;;;18.90;79.60;;;;;;5067889;28;19912;-84
2023/08/19 02:32:41;;;;;;;;;;;18.90;79.60;;;;;;5068972;28;20285;-83
2023/08/19 02:35:07;;;;;;;;;;;18.90;79.70;;;;;;5090502;28;19955;-81
2023/08/19 02:37:33;;;;;;;;;;;18.90;79.70;;;;;;5104626;28;19908;-84
2023/08/19 02:39:58;;;;;;;;;;;18.80;79.70;;;;;;5067417;28;19998;-84
2023/08/19 02:42:24;;;;;;;;;;;18.80;79.70;;;;;;5084420;28;19920;-83
2023/08/19 02:44:49;;;;;;;;;;;18.70;79.70;;;;;;5068157;28;20388;-83
2023/08/19 02:47:15;;;;;;;;;;;18.70;79.70;;;;;;5104244;28;19912;-84
2023/08/19 02:49:40;;;;;;;;;;;18.70;79.70;;;;;;5066403;28;19912;-83
2023/08/19 02:52:06;;;;;;;;;;;18.70;79.80;;;;;;5065057;28;20015;-84
2023/08/19 02:54:31;;;;;;;;;;;18.60;79.80;;;;;;5065534;28;20334;-86
2023/08/19 02:56:57;;;;;;;;;;;18.60;79.80;;;;;;5068672;28;20376;-83
2023/08/19 02:59:23;;;;;;;;;;;18.60;79.80;;;;;;5068697;28;19916;-86
2023/08/19 03:01:48;;;;;;;;;;;18.60;79.80;;;;;;5103836;28;19920;-87
2023/08/19 03:04:14;;;;;;;;;;;18.60;79.80;;;;;;5087241;28;19909;-86
2023/08/19 03:06:41;;;;;;;;;;;18.60;79.80;;;;;;5070359;28;19916;-86
2023/08/19 03:09:06;;;;;;;;;;;18.60;79.80;;;;;;5103210;28;19979;-85
2023/08/19 03:11:32;;;;;;;;;;;18.60;79.80;;;;;;5105939;28;19908;-85
2023/08/19 03:13:58;;;;;;;;;;;18.50;79.80;;;;;;5089530;28;19916;-85
2023/08/19 03:16:23;;;;;;;;;;;18.50;79.70;;;;;;5086872;28;19913;-85
2023/08/19 03:18:49;;;;;;;;;;;18.50;79.70;;;;;;5072344;28;20008;-86
2023/08/19 03:21:14;;;;;;;;;;;18.40;79.60;;;;;;5087151;28;19920;-85
2023/08/19 03:23:40;;;;;;;;;;;18.40;79.70;;;;;;5087414;28;19920;-85
2023/08/19 03:26:06;;;;;;;;;;;18.40;79.80;;;;;;5106109;28;19950;-86
2023/08/19 03:28:31;;;;;;;;;;;18.40;79.80;;;;;;5106665;28;19920;-85
2023/08/19 03:30:57;;;;;;;;;;;18.40;79.80;;;;;;5073680;28;19923;-85
2023/08/19 03:33:22;;;;;;;;;;;18.50;79.90;;;;;;5073127;28;19912;-85
2023/08/19 03:35:48;;;;;;;;;;;18.40;79.80;;;;;;5072660;28;19923;-86
2023/08/19 03:38:13;;;;;;;;;;;18.50;79.90;;;;;;5087950;28;20289;-83
2023/08/19 03:40:39;;;;;;;;;;;18.50;79.90;;;;;;5088864;28;19920;-85
2023/08/19 03:43:07;;;;;;;;;;;18.50;79.80;;;;;;5104530;28;19912;-86
2023/08/19 03:45:33;;;;;;;;;;;18.50;79.80;;;;;;5103876;28;19962;-86
2023/08/19 03:47:59;;;;;;;;;;;18.50;79.70;;;;;;5099425;28;19908;-85
2023/08/19 03:50:24;;;;;;;;;;;18.50;79.70;;;;;;5086397;28;19976;-87
2023/08/19 03:52:50;;;;;;;;;;;18.40;79.60;;;;;;5072871;28;19913;-87
2023/08/19 03:55:15;;;;;;;;;;;18.40;79.60;;;;;;5070811;28;19913;-86
2023/08/19 03:57:41;;;;;;;;;;;18.40;79.60;;;;;;5086142;28;19912;-86
2023/08/19 04:00:07;;;;;;;;;;;18.30;79.60;;;;;;5068302;28;19916;-82
2023/08/19 04:02:33;;;;;;;;;;;18.30;79.60;;;;;;5084050;28;19909;-86
2023/08/19 04:04:59;;;;;;;;;;;18.30;79.70;;;;;;5099979;28;20067;-86
2023/08/19 04:07:24;;;;;;;;;;;18.30;79.70;;;;;;5100915;28;19914;-85
2023/08/19 04:09:50;;;;;;;;;;;18.20;79.60;;;;;;5083319;28;20030;-84
2023/08/19 04:12:16;;;;;;;;;;;18.30;79.70;;;;;;5091971;28;19947;-85
2023/08/19 04:14:42;;;;;;;;;;;18.30;79.80;;;;;;5060798;28;19948;-85
2023/08/19 04:17:07;;;;;;;;;;;18.40;79.80;;;;;;5098481;28;19954;-87
2023/08/19 04:19:33;;;;;;;;;;;18.40;79.80;;;;;;5066085;28;19980;-85
2023/08/19 04:21:58;;;;;;;;;;;18.40;79.80;;;;;;5099335;28;19919;-83
2023/08/19 04:24:24;;;;;;;;;;;18.40;79.80;;;;;;5087871;28;19988;-85
2023/08/19 04:26:50;;;;;;;;;;;18.50;79.80;;;;;;5068307;28;19944;-86
2023/08/19 04:29:15;;;;;;;;;;;18.50;79.80;;;;;;5107228;28;19912;-86
2023/08/19 04:31:41;;;;;;;;;;;18.50;79.80;;;;;;5106392;28;19978;-85
2023/08/19 04:34:06;;;;;;;;;;;18.50;79.90;;;;;;5088549;28;19919;-84
2023/08/19 04:36:32;;;;;;;;;;;18.50;79.90;;;;;;5087318;28;20092;-85
2023/08/19 04:38:57;;;;;;;;;;;18.50;79.90;;;;;;5073140;28;20348;-86
2023/08/19 04:41:23;;;;;;;;;;;18.60;79.90;;;;;;5089194;28;19913;-86
2023/08/19 04:43:48;;;;;;;;;;;18.60;79.90;;;;;;5084530;28;19912;-83
2023/08/19 04:46:14;;;;;;;;;;;18.60;79.90;;;;;;5056570;28;20014;-84
2023/08/19 04:48:39;;;;;;;;;;;18.60;79.90;;;;;;5073471;28;20227;-82
2023/08/19 04:51:05;;;;;;;;;;;18.60;79.80;;;;;;5073376;28;19935;-84
2023/08/19 04:53:31;;;;;;;;;;;18.60;79.80;;;;;;5091491;28;19912;-86
2023/08/19 04:55:57;;;;;;;;;;;18.50;79.70;;;;;;5091467;28;20372;-84
2023/08/19 04:58:23;;;;;;;;;;;18.50;79.70;;;;;;5056511;28;20027;-85
2023/08/19 05:00:49;;;;;;;;;;;18.40;79.80;;;;;;5073047;28;20205;-84
2023/08/19 05:03:15;;;;;;;;;;;18.40;79.80;;;;;;5073253;28;19912;-85
2023/08/19 05:05:41;;;;;;;;;;;18.40;79.80;;;;;;5073375;28;19968;-83
2023/08/19 05:08:06;;;;;;;;;;;18.40;79.90;;;;;;5091543;28;20403;-85
2023/08/19 05:10:32;;;;;;;;;;;18.40;79.90;;;;;;5072999;28;20396;-85
2023/08/19 05:12:58;;;;;;;;;;;18.40;79.90;;;;;;5056496;28;20337;-85
2023/08/19 05:15:23;;;;;;;;;;;18.40;79.90;;;;;;5072849;28;19940;-85
2023/08/19 05:17:49;;;;;;;;;;;18.30;79.80;;;;;;5056225;28;19912;-84
2023/08/19 05:20:14;;;;;;;;;;;18.30;79.80;;;;;;5073148;28;19924;-83
2023/08/19 05:22:40;;;;;;;;;;;18.40;79.90;;;;;;5056327;28;19916;-85
2023/08/19 05:25:06;;;;;;;;;;;18.30;79.80;;;;;;5072935;28;19919;-85
2023/08/19 05:27:31;;;;;;;;;;;18.40;79.90;;;;;;5056310;28;19920;-85
2023/08/19 05:29:57;;;;;;;;;;;18.30;79.80;;;;;;5055773;28;20194;-85
2023/08/19 05:32:23;;;;;;;;;;;18.20;79.70;;;;;;5056612;28;19912;-85
2023/08/19 05:34:48;;;;;;;;;;;18.20;79.70;;;;;;5091197;28;19944;-84
2023/08/19 05:37:14;;;;;;;;;;;18.10;79.70;;;;;;5072256;28;20012;-84
2023/08/19 05:39:40;;;;;;;;;;;18.10;79.80;;;;;;5090756;28;19927;-86
2023/08/19 05:42:06;;;;;;;;;;;18.10;79.80;;;;;;5090642;28;20317;-84
2023/08/19 05:44:32;;;;;;;;;;;18.10;79.80;;;;;;5055472;28;20356;-85
2023/08/19 05:46:57;;;;;;;;;;;18.00;79.80;;;;;;5055888;28;20238;-85
2023/08/19 05:49:23;;;;;;;;;;;18.00;79.80;;;;;;5075216;28;19919;-84
2023/08/19 05:51:48;;;;;;;;;;;18.00;79.80;;;;;;5080203;28;19927;-85
2023/08/19 05:54:14;;;;;;;;;;;18.00;79.90;;;;;;5055893;28;19919;-85
2023/08/19 05:56:40;;;;;;;;;;;18.00;79.90;;;;;;5090494;28;19912;-85
2023/08/19 05:59:05;;;;;;;;;;;18.00;79.90;;;;;;5072434;28;19919;-84
2023/08/19 06:01:31;;;;;;;;;;;18.00;80.00;;;;;;5072419;28;20015;-83
2023/08/19 06:03:56;;;;;;;;;;;18.00;80.00;;;;;;5071785;28;19913;-83
2023/08/19 06:06:22;;;;;;;;;;;18.10;80.10;;;;;;5071775;28;20384;-82
2023/08/19 06:08:47;;;;;;;;;;;18.10;80.00;;;;;;5071708;28;19916;-83
2023/08/19 06:11:13;;;;;;;;;;;18.20;80.10;;;;;;5071886;28;20007;-82
2023/08/19 06:13:39;;;;;;;;;;;18.20;80.10;;;;;;5071653;28;19916;-82
2023/08/19 06:16:05;;;;;;;;;;;18.30;80.10;;;;;;5055095;28;20016;-83
2023/08/19 06:18:30;;;;;;;;;;;18.30;80.10;;;;;;5071218;28;20249;-82
2023/08/19 06:20:56;;;;;;;;;;;18.30;80.10;;;;;;5071300;28;20015;-83
2023/08/19 06:23:22;;;;;;;;;;;18.40;80.10;;;;;;5089558;28;19916;-83
2023/08/19 06:25:49;;;;;;;;;;;18.40;80.10;;;;;;5054513;28;19926;-83
2023/08/19 06:28:14;;;;;;;;;;;18.40;80.10;;;;;;5054415;28;19912;-83
2023/08/19 06:30:40;;;;;;;;;;;18.40;80.10;;;;;;5070888;28;19973;-83
2023/08/19 06:33:06;;;;;;;;;;;18.50;80.20;;;;;;5054380;28;20287;-83
2023/08/19 06:35:32;;;;;;;;;;;18.50;80.10;;;;;;5070894;28;19912;-84
2023/08/19 06:37:59;;;;;;;;;;;18.40;80.00;;;;;;5089190;28;20356;-83
2023/08/19 06:40:26;;;;;;;;;;;18.40;80.10;;;;;;5089022;28;19916;-82
2023/08/19 06:42:52;;;;;;;;;;;18.40;80.10;;;;;;5087862;28;20003;-83
2023/08/19 06:45:18;;;;;;;;;;;18.40;80.10;;;;;;5089191;28;20017;-82
2023/08/19 06:47:45;;;;;;;;;;;18.40;80.10;;;;;;5070871;28;19912;-83
2023/08/19 06:50:12;;;;;;;;;;;18.40;80.10;;;;;;5070689;28;19909;-81
2023/08/19 06:52:38;;;;;;;;;;;18.40;80.10;;;;;;5088954;28;19946;-83
2023/08/19 06:55:04;;;;;;;;;;;18.50;80.20;;;;;;5053535;28;19912;-82
2023/08/19 06:57:35;;;;;;;;;;;18.50;80.10;;;;;;5070838;28;19973;-82
2023/08/19 07:00:20;;;;;;;;;;;18.40;80.10;;;;;;5070426;28;19923;-82
2023/08/19 07:02:46;;;;;;;;;;;18.40;80.00;;;;;;5088920;28;19908;-82
2023/08/19 07:05:13;;;;;;;;;;;18.40;80.00;;;;;;5088654;28;19993;-82
2023/08/19 07:07:42;;;;;;;;;;;18.40;80.00;;;;;;5088913;28;19963;-83
2023/08/19 07:10:09;;;;;;;;;;;18.40;80.10;;;;;;5070330;28;19920;-83
2023/08/19 07:12:34;;;;;;;;;;;18.40;80.10;;;;;;5070552;28;19912;-83
2023/08/19 07:15:00;;;;;;;;;;;18.40;80.10;;;;;;5053834;28;20285;-82
2023/08/19 07:17:28;;;;;;;;;;;18.50;80.10;;;;;;5088219;28;19958;-82
2023/08/19 07:19:54;;;;;;;;;;;18.50;80.10;;;;;;5070102;28;19920;-82
2023/08/19 07:22:20;;;;;;;;;;;18.50;80.10;;;;;;5088735;28;20373;-80
2023/08/19 07:24:47;;;;;;;;;;;18.50;80.00;;;;;;5092253;28;19908;-82
2023/08/19 07:27:14;;;;;;;;;;;18.60;80.10;;;;;;5060688;28;19970;-79
2023/08/19 07:29:40;;;;;;;;;;;18.60;80.00;;;;;;5087128;28;19908;-81
2023/08/19 07:32:06;;;;;;;;;;;18.60;80.00;;;;;;5070340;28;19948;-82
2023/08/19 07:34:32;;;;;;;;;;;18.60;80.00;;;;;;5088395;28;20285;-82
2023/08/19 07:36:57;;;;;;;;;;;18.70;80.00;;;;;;5070333;28;19970;-82
2023/08/19 07:39:25;;;;;;;;;;;18.80;80.10;;;;;;5069989;28;20023;-82
2023/08/19 07:41:50;;;;;;;;;;;18.90;80.10;;;;;;5088212;28;19919;-82
2023/08/19 07:44:16;;;;;;;;;;;19.00;80.10;;;;;;5070075;28;20342;-80
2023/08/19 07:46:41;;;;;;;;;;;19.20;80.20;;;;;;5070051;28;19965;-79
2023/08/19 07:49:07;;;;;;;;;;;19.30;80.00;;;;;;5052719;28;19916;-82
2023/08/19 07:51:33;;;;;;;;;;;19.50;79.90;;;;;;5053101;28;19916;-82
2023/08/19 07:53:58;;;;;;;;;;;19.70;79.90;;;;;;5052544;28;19919;-81
2023/08/19 07:56:24;;;;;;;;;;;19.90;80.00;;;;;;5069464;28;20385;-82
2023/08/19 07:58:49;;;;;;;;;;;20.10;79.80;;;;;;5087535;28;20275;-82
2023/08/19 08:01:15;;;;;;;;;;;20.50;80.00;;;;;;5069603;28;19983;-79
2023/08/19 08:03:41;;;;;;;;;;;20.70;79.50;;;;;;5088076;28;19934;-79
2023/08/19 08:06:07;;;;;;;;;;;20.80;79.20;;;;;;5056478;28;19982;-78
2023/08/19 08:08:32;;;;;;;;;;;20.70;78.90;;;;;;5074089;28;19930;-78
2023/08/19 08:10:58;;;;;;;;;;;20.50;79.00;;;;;;5090919;28;20403;-78
2023/08/19 08:13:24;;;;;;;;;;;20.40;79.10;;;;;;5056980;28;19912;-79
2023/08/19 08:15:50;;;;;;;;;;;20.30;79.40;;;;;;5074119;28;20028;-80
2023/08/19 08:18:15;;;;;;;;;;;20.30;79.50;;;;;;5056622;28;19963;-80
2023/08/19 08:20:41;;;;;;;;;;;20.20;79.50;;;;;;5073400;28;19959;-80
2023/08/19 08:23:07;;;;;;;;;;;20.20;79.50;;;;;;5091746;28;19912;-80
2023/08/19 08:25:32;;;;;;;;;;;20.20;79.70;;;;;;5073665;28;19915;-79
2023/08/19 08:27:58;;;;;;;;;;;20.30;79.80;;;;;;5073204;28;19999;-80
2023/08/19 08:30:23;;;;;;;;;;;20.80;80.20;;;;;;5076818;28;20380;-75
2023/08/19 08:32:49;;;;;;;;;;;21.10;80.00;;;;;;5097118;28;19912;-75
2023/08/19 08:35:16;;;;;;;;;;;21.40;79.40;;;;;;5097047;28;19912;-75
2023/08/19 08:37:41;;;;;;;;;;;21.30;78.70;;;;;;5091334;28;19915;-80
2023/08/19 08:40:07;;;;;;;;;;;20.90;78.50;;;;;;5056550;28;19920;-79
2023/08/19 08:42:33;;;;;;;;;;;20.70;79.00;;;;;;5073066;28;20360;-79
2023/08/19 08:44:59;;;;;;;;;;;20.90;79.90;;;;;;5073034;28;19920;-79
2023/08/19 08:47:26;;;;;;;;;;;21.50;80.60;;;;;;5072719;28;19935;-81
2023/08/19 08:49:52;;;;;;;;;;;22.00;79.80;;;;;;5091953;28;19909;-80
2023/08/19 08:52:19;;;;;;;;;;;22.10;79.30;;;;;;5058313;28;19992;-78
2023/08/19 08:54:45;;;;;;;;;;;22.10;79.00;;;;;;5077125;28;19978;-80
2023/08/19 08:57:13;;;;;;;;;;;22.00;78.90;;;;;;5062320;28;19916;-81
2023/08/19 08:59:38;;;;;;;;;;;21.90;79.00;;;;;;5090864;28;19919;-82
2023/08/19 09:02:05;;;;;;;;;;;21.80;79.00;;;;;;5099547;28;19991;-82
2023/08/19 09:04:31;;;;;;;;;;;21.70;79.20;;;;;;5082104;28;19912;-83
2023/08/19 09:06:58;;;;;;;;;;;21.70;79.40;;;;;;5104239;28;19912;-82
2023/08/19 09:09:24;;;;;;;;;;;21.80;79.50;;;;;;5094027;28;20311;-84
2023/08/19 09:11:52;;;;;;;;;;;22.10;80.00;;;;;;5075647;28;19912;-85
2023/08/19 09:14:54;;;;;;;;;;;22.70;80.40;;;;;;5093204;28;19908;-83
2023/08/19 09:17:19;;;;;;;;;;;23.10;79.50;;;;;;4974867;28;19959;-83
2023/08/19 09:19:45;;;;;;;;;;;23.20;79.30;;;;;;5025477;28;19928;-83
2023/08/19 09:22:18;;;;;;;;;;;23.00;78.40;;;;;;5055142;28;19935;-83
2023/08/19 09:24:44;;;;;;;;;;;22.70;78.60;;;;;;5055146;28;19911;-84
2023/08/19 09:27:09;;;;;;;;;;;22.50;78.90;;;;;;5060619;28;20382;-83
2023/08/19 09:29:35;;;;;;;;;;;22.30;78.90;;;;;;5074403;28;19919;-83
2023/08/19 09:32:02;;;;;;;;;;;22.10;79.60;;;;;;5074973;28;20366;-83
2023/08/19 09:34:28;;;;;;;;;;;22.00;79.30;;;;;;5075450;28;19912;-82
2023/08/19 09:36:57;;;;;;;;;;;22.00;79.50;;;;;;5091540;28;19979;-83
2023/08/19 09:39:25;;;;;;;;;;;22.00;79.40;;;;;;5093838;28;19915;-84
2023/08/19 09:42:00;;;;;;;;;;;21.90;79.30;;;;;;5085731;28;19994;-82
2023/08/19 09:44:30;;;;;;;;;;;21.80;79.30;;;;;;5058928;28;19912;-83
2023/08/19 09:46:56;;;;;;;;;;;21.70;79.20;;;;;;5067910;28;19955;-83
2023/08/19 09:49:22;;;;;;;;;;;21.70;79.60;;;;;;5071949;28;20368;-84
2023/08/19 09:51:57;;;;;;;;;;;21.80;79.60;;;;;;5087175;28;19919;-83
2023/08/19 09:54:22;;;;;;;;;;;21.90;79.50;;;;;;5076254;28;19912;-82
2023/08/19 09:56:55;;;;;;;;;;;22.00;79.50;;;;;;5059562;28;19923;-84
2023/08/19 09:59:24;;;;;;;;;;;22.20;79.70;;;;;;5092113;28;20360;-81
2023/08/19 10:01:51;;;;;;;;;;;22.60;79.80;;;;;;5073761;28;19909;-77
2023/08/19 10:04:20;;;;;;;;;;;22.90;79.60;;;;;;5091611;28;19957;-77
2023/08/19 10:06:49;;;;;;;;;;;22.90;79.20;;;;;;5092407;28;19908;-80
2023/08/19 10:09:15;;;;;;;;;;;22.90;79.10;;;;;;5074167;28;20276;-80
2023/08/19 10:11:42;;;;;;;;;;;23.00;79.30;;;;;;5073351;28;19997;-79
2023/08/19 10:14:08;;;;;;;;;;;22.90;78.90;;;;;;5073182;28;20363;-79
2023/08/19 10:16:37;;;;;;;;;;;22.80;79.00;;;;;;5090858;28;19912;-80
2023/08/19 10:19:04;;;;;;;;;;;22.60;79.00;;;;;;5072731;28;19916;-80
2023/08/19 10:21:30;;;;;;;;;;;22.50;79.20;;;;;;5091126;28;19985;-78
2023/08/19 10:23:57;;;;;;;;;;;22.30;79.20;;;;;;5072460;28;19908;-81
2023/08/19 10:26:23;;;;;;;;;;;22.20;79.30;;;;;;5091051;28;19915;-80
2023/08/19 10:29:04;;;;;;;;;;;22.00;79.10;;;;;;5088667;28;19912;-78
2023/08/19 10:31:30;;;;;;;;;;;21.80;79.30;;;;;;5071843;28;20014;-76
2023/08/19 10:33:56;;;;;;;;;;;21.70;79.40;;;;;;5091734;28;19940;-80
2023/08/19 10:36:25;;;;;;;;;;;21.60;79.50;;;;;;5086649;28;19916;-79
2023/08/19 10:38:51;;;;;;;;;;;21.50;79.50;;;;;;5091707;28;19919;-79
2023/08/19 10:41:20;;;;;;;;;;;21.40;79.60;;;;;;5077223;28;19912;-78
2023/08/19 10:43:56;;;;;;;;;;;21.40;79.60;;;;;;5074092;28;19958;-81
2023/08/19 10:46:36;;;;;;;;;;;21.40;79.60;;;;;;5072495;28;20009;-82
2023/08/19 10:49:03;;;;;;;;;;;21.40;79.80;;;;;;5091150;28;20321;-82
2023/08/19 10:51:47;;;;;;;;;;;21.40;79.70;;;;;;5090978;28;19965;-81
2023/08/19 10:54:14;;;;;;;;;;;21.30;79.70;;;;;;5072306;28;19908;-82
2023/08/19 10:56:43;;;;;;;;;;;21.40;80.30;;;;;;5072637;28;19908;-81
2023/08/19 10:59:09;;;;;;;;;;;21.50;80.20;;;;;;5056058;28;19919;-82
2023/08/19 11:01:35;;;;;;;;;;;21.80;81.00;;;;;;5074061;28;19916;-81
2023/08/19 11:04:00;;;;;;;;;;;22.70;81.00;;;;;;5058273;28;20371;-82
2023/08/19 11:06:33;;;;;;;;;;;23.10;80.10;;;;;;5074533;28;19912;-83
2023/08/19 11:08:59;;;;;;;;;;;23.40;79.60;;;;;;5074030;28;20357;-82
2023/08/19 11:11:25;;;;;;;;;;;23.50;79.30;;;;;;5058140;28;19911;-81
2023/08/19 11:13:51;;;;;;;;;;;23.50;79.20;;;;;;5091604;28;19954;-82
2023/08/19 11:16:17;;;;;;;;;;;23.50;79.20;;;;;;5074401;28;19934;-82
2023/08/19 11:18:43;;;;;;;;;;;23.40;79.00;;;;;;5072882;28;19936;-81
2023/08/19 11:21:10;;;;;;;;;;;23.30;79.10;;;;;;5072096;28;21375;-76
2023/08/19 11:23:36;;;;;;;;;;;23.10;79.30;;;;;;5090423;28;19919;-77
2023/08/19 11:26:02;;;;;;;;;;;23.10;79.40;;;;;;5071847;28;19912;-77
2023/08/19 11:28:27;;;;;;;;;;;23.20;80.10;;;;;;5055696;28;19920;-80
2023/08/19 11:30:53;;;;;;;;;;;24.20;81.40;;;;;;5072455;28;19919;-79
2023/08/19 11:33:19;;;;;;;;;;;24.80;80.60;;;;;;5089947;28;20037;-77
2023/08/19 11:35:48;;;;;;;;;;;25.70;81.10;;;;;;5089048;28;19908;-80
2023/08/19 11:38:14;;;;;;;;;;;26.30;80.10;;;;;;5088973;28;19939;-78
2023/08/19 11:40:41;;;;;;;;;;;26.20;79.30;;;;;;5070468;28;19939;-79
2023/08/19 11:43:11;;;;;;;;;;;26.00;79.00;;;;;;5054124;28;19916;-79
2023/08/19 11:45:40;;;;;;;;;;;25.80;79.00;;;;;;5089277;28;19909;-78
2023/08/19 11:48:06;;;;;;;;;;;25.70;79.30;;;;;;5070473;28;19907;-78
2023/08/19 11:50:34;;;;;;;;;;;25.90;79.90;;;;;;5089350;28;19917;-79
2023/08/19 11:53:02;;;;;;;;;;;26.20;80.00;;;;;;5088966;28;19924;-78
2023/08/19 11:55:27;;;;;;;;;;;26.30;79.90;;;;;;5089890;28;19912;-81
2023/08/19 11:57:53;;;;;;;;;;;26.40;79.80;;;;;;5071557;28;20356;-80
2023/08/19 12:00:19;;;;;;;;;;;26.30;79.40;;;;;;5090226;28;19969;-83
2023/08/19 12:02:45;;;;;;;;;;;26.40;79.90;;;;;;5071052;28;20272;-81
2023/08/19 12:05:11;;;;;;;;;;;26.50;80.00;;;;;;5070658;28;19990;-83
2023/08/19 12:07:36;;;;;;;;;;;26.40;79.50;;;;;;5071111;28;19943;-79
2023/08/19 12:10:03;;;;;;;;;;;26.20;79.10;;;;;;5071292;28;20344;-80
2023/08/19 12:12:29;;;;;;;;;;;25.90;79.30;;;;;;5089476;28;19951;-81
2023/08/19 12:14:55;;;;;;;;;;;25.80;79.30;;;;;;5089897;28;19955;-79
2023/08/19 12:17:21;;;;;;;;;;;25.70;79.60;;;;;;5056011;28;20612;-83
2023/08/19 12:19:47;;;;;;;;;;;25.70;79.60;;;;;;5076338;28;19920;-84
2023/08/19 12:22:12;;;;;;;;;;;25.50;79.70;;;;;;5072684;28;19940;-84
2023/08/19 12:24:39;;;;;;;;;;;25.40;79.50;;;;;;5071859;28;19908;-83
2023/08/19 12:27:05;;;;;;;;;;;25.50;79.90;;;;;;5054424;28;19912;-84
2023/08/19 12:29:30;;;;;;;;;;;25.80;80.20;;;;;;5071244;28;20022;-85
2023/08/19 12:31:56;;;;;;;;;;;26.10;80.10;;;;;;5071829;28;19916;-80
2023/08/19 12:34:21;;;;;;;;;;;26.10;79.70;;;;;;5090448;28;20383;-84
2023/08/19 12:36:47;;;;;;;;;;;26.20;79.70;;;;;;5071231;28;19935;-82
2023/08/19 12:39:13;;;;;;;;;;;26.10;79.40;;;;;;5054156;28;19958;-79
2023/08/19 12:41:39;;;;;;;;;;;25.90;79.20;;;;;;5070935;28;19974;-80
2023/08/19 12:44:04;;;;;;;;;;;25.70;79.30;;;;;;5089605;28;20003;-82
2023/08/19 12:46:31;;;;;;;;;;;25.70;79.50;;;;;;5090185;28;20062;-82
2023/08/19 12:48:56;;;;;;;;;;;25.70;79.50;;;;;;5071078;28;20439;-77
2023/08/19 12:51:23;;;;;;;;;;;25.70;79.50;;;;;;5071549;28;19913;-81
2023/08/19 12:53:49;;;;;;;;;;;25.70;79.40;;;;;;5094828;28;19991;-79
2023/08/19 12:56:14;;;;;;;;;;;25.70;79.40;;;;;;5075193;28;20355;-81
2023/08/19 12:58:40;;;;;;;;;;;25.70;79.70;;;;;;5058001;28;19918;-79
2023/08/19 13:01:06;;;;;;;;;;;26.20;80.40;;;;;;5074872;28;19953;-82
2023/08/19 13:03:31;;;;;;;;;;;26.40;79.90;;;;;;5058501;28;19913;-84
2023/08/19 13:05:57;;;;;;;;;;;26.40;79.50;;;;;;5094148;28;19923;-80
2023/08/19 13:08:22;;;;;;;;;;;26.20;79.20;;;;;;5074463;28;20313;-77
2023/08/19 13:10:48;;;;;;;;;;;26.00;79.20;;;;;;5092669;28;19912;-81
2023/08/19 13:13:13;;;;;;;;;;;25.80;79.20;;;;;;5092907;28;20002;-83
2023/08/19 13:15:39;;;;;;;;;;;25.60;79.20;;;;;;5093575;28;19930;-81
2023/08/19 13:18:05;;;;;;;;;;;25.50;79.30;;;;;;5074197;28;19919;-79
2023/08/19 13:20:30;;;;;;;;;;;25.50;79.60;;;;;;5073377;28;19962;-77
2023/08/19 13:22:56;;;;;;;;;;;25.60;79.90;;;;;;5074043;28;20273;-80
2023/08/19 13:25:22;;;;;;;;;;;25.80;80.30;;;;;;5057485;28;20296;-80
2023/08/19 13:27:47;;;;;;;;;;;26.00;80.00;;;;;;5074498;28;19973;-79
2023/08/19 13:30:13;;;;;;;;;;;26.00;79.70;;;;;;5093160;28;20316;-81
2023/08/19 13:32:38;;;;;;;;;;;25.90;79.50;;;;;;5075217;28;19909;-80
2023/08/19 13:35:07;;;;;;;;;;;25.70;79.30;;;;;;5058527;28;20011;-79
2023/08/19 13:37:33;;;;;;;;;;;25.70;79.60;;;;;;5074357;28;20322;-80
2023/08/19 13:39:58;;;;;;;;;;;25.80;79.80;;;;;;5073972;28;19923;-80
2023/08/19 13:42:24;;;;;;;;;;;25.80;79.60;;;;;;5073837;28;19912;-80
2023/08/19 13:44:50;;;;;;;;;;;25.90;79.70;;;;;;5091645;28;19908;-81
2023/08/19 13:47:15;;;;;;;;;;;25.90;79.60;;;;;;5074002;28;19912;-79
2023/08/19 13:49:41;;;;;;;;;;;25.80;79.40;;;;;;5090859;28;20306;-80
2023/08/19 13:52:26;;;;;;;;;;;25.60;79.30;;;;;;5092905;28;19919;-80
2023/08/19 13:54:52;;;;;;;;;;;25.50;79.40;;;;;;5074970;28;19908;-79
2023/08/19 13:57:17;;;;;;;;;;;25.40;79.50;;;;;;5073882;28;19923;-77
2023/08/19 13:59:43;;;;;;;;;;;25.40;79.50;;;;;;5074626;28;19916;-76
2023/08/19 14:02:09;;;;;;;;;;;25.40;79.40;;;;;;5074686;28;19938;-76
2023/08/19 14:04:34;;;;;;;;;;;25.40;79.40;;;;;;5090025;28;19966;-77
2023/08/19 14:07:00;;;;;;;;;;;25.40;79.10;;;;;;5072824;28;19908;-76
2023/08/19 14:09:25;;;;;;;;;;;25.20;78.90;;;;;;5069432;28;19909;-77
2023/08/19 14:11:51;;;;;;;;;;;25.10;79.00;;;;;;5044842;28;20401;-76